Time;durP1;ratioP1;P1;durP2;ratioP2;P2;SDS_P1;SDS_P2;PMS_P1;PMS_P2;Temp;Humidity;BMP_temperature;BMP_pressure;BME280_temperature;BME280_humidity;BME280_pressure;Samples;Min_cycle;Max_cycle;Signal;HPM_P1;HPM_P2
2022/01/09 05:01:08;;;;;;;0.87;0.87;;;4.90;99.90;;;;;;5706171;23;20265;-73
2022/01/09 05:03:35;;;;;;;0.93;0.93;;;4.80;99.90;;;;;;4973298;28;20460;-73
2022/01/09 05:06:02;;;;;;;0.70;0.70;;;4.80;99.90;;;;;;4973999;28;20583;-73
2022/01/09 05:08:29;;;;;;;0.90;0.80;;;4.70;99.90;;;;;;4973828;28;20546;-73
2022/01/09 05:10:56;;;;;;;0.80;0.80;;;4.70;99.90;;;;;;4973573;28;20914;-72
2022/01/09 05:13:23;;;;;;;0.90;0.90;;;4.70;99.90;;;;;;4974175;28;20534;-73
2022/01/09 05:15:50;;;;;;;0.93;0.80;;;4.70;99.90;;;;;;4973334;28;20437;-72
2022/01/09 05:18:19;;;;;;;1.73;0.70;;;4.60;99.90;;;;;;4973682;28;20535;-71
2022/01/09 05:20:46;;;;;;;0.90;0.90;;;4.60;99.90;;;;;;4973492;28;20479;-72
2022/01/09 05:23:13;;;;;;;1.10;1.10;;;4.50;99.90;;;;;;4973825;28;20555;-72
2022/01/09 05:25:40;;;;;;;4.10;0.90;;;4.50;99.90;;;;;;4973326;28;20537;-72
2022/01/09 05:28:07;;;;;;;2.53;1.17;;;4.40;99.90;;;;;;4973567;28;20539;-72
2022/01/09 05:30:34;;;;;;;0.80;0.80;;;4.40;99.90;;;;;;4973071;28;21067;-71
2022/01/09 05:33:01;;;;;;;1.43;0.80;;;4.40;99.90;;;;;;4973761;28;20455;-71
2022/01/09 05:35:29;;;;;;;0.90;0.90;;;4.30;99.90;;;;;;4973340;28;20535;-71
2022/01/09 05:37:56;;;;;;;0.80;0.80;;;4.20;99.90;;;;;;4973506;28;20527;-71
2022/01/09 05:40:23;;;;;;;0.90;0.90;;;4.20;99.90;;;;;;4972956;28;20551;-72
2022/01/09 05:42:50;;;;;;;1.00;1.00;;;4.10;99.90;;;;;;4973229;28;20956;-72
2022/01/09 05:45:18;;;;;;;1.00;1.00;;;4.10;99.90;;;;;;4973407;28;20534;-72
2022/01/09 05:47:45;;;;;;;1.40;0.97;;;4.00;99.90;;;;;;4973293;28;20575;-72
2022/01/09 05:50:12;;;;;;;1.53;1.00;;;3.90;99.90;;;;;;4973031;28;20455;-72
2022/01/09 05:52:40;;;;;;;0.90;0.90;;;3.90;99.90;;;;;;4973288;28;20543;-72
2022/01/09 05:55:08;;;;;;;1.50;1.13;;;3.80;99.90;;;;;;4973130;28;21003;-72
2022/01/09 05:57:35;;;;;;;0.80;0.80;;;3.80;99.90;;;;;;4973385;28;20470;-72
2022/01/09 06:00:03;;;;;;;0.90;0.90;;;3.70;99.90;;;;;;4973607;28;20464;-71
2022/01/09 06:02:30;;;;;;;0.73;0.73;;;3.70;99.90;;;;;;4973111;28;20563;-71
2022/01/09 06:04:57;;;;;;;2.20;0.90;;;3.60;99.90;;;;;;4973533;28;21047;-71
2022/01/09 06:07:24;;;;;;;0.80;0.80;;;3.60;99.90;;;;;;4977151;28;20590;-71
2022/01/09 06:09:52;;;;;;;1.23;0.80;;;3.60;99.90;;;;;;4976725;28;20458;-71
2022/01/09 06:12:19;;;;;;;0.80;0.80;;;3.50;99.90;;;;;;4976839;28;20495;-72
2022/01/09 06:14:46;;;;;;;0.70;0.70;;;3.50;99.90;;;;;;4977188;28;20549;-72
2022/01/09 06:17:12;;;;;;;1.20;0.97;;;3.50;99.90;;;;;;4977355;28;20452;-72
2022/01/09 06:19:39;;;;;;;1.33;1.23;;;3.50;99.90;;;;;;4976522;28;20487;-72
2022/01/09 06:22:06;;;;;;;1.27;1.17;;;3.60;99.90;;;;;;4976719;28;20472;-72
2022/01/09 06:24:33;;;;;;;1.30;1.20;;;3.60;99.90;;;;;;4976554;28;20494;-73
2022/01/09 06:27:02;;;;;;;1.27;1.20;;;3.60;99.90;;;;;;4976648;28;20582;-72
2022/01/09 06:29:29;;;;;;;2.23;1.30;;;3.50;99.90;;;;;;4976690;28;20487;-72
2022/01/09 06:31:55;;;;;;;2.13;1.40;;;3.50;99.90;;;;;;4976586;28;20551;-72
2022/01/09 06:34:22;;;;;;;3.60;1.40;;;3.50;99.90;;;;;;4976498;28;20819;-71
2022/01/09 06:36:49;;;;;;;4.03;1.37;;;3.60;99.90;;;;;;4976583;28;20527;-71
2022/01/09 06:39:16;;;;;;;3.43;1.37;;;3.60;99.90;;;;;;4976340;28;20542;-71
2022/01/09 06:41:43;;;;;;;2.40;1.50;;;3.60;99.90;;;;;;4976646;28;20554;-72
2022/01/09 06:44:11;;;;;;;3.50;1.67;;;3.60;99.90;;;;;;4976449;28;20443;-73
2022/01/09 06:46:38;;;;;;;8.20;1.47;;;3.60;99.90;;;;;;4976397;28;20499;-73
2022/01/09 06:49:05;;;;;;;1.50;1.40;;;3.60;99.90;;;;;;4976099;28;20462;-72
2022/01/09 06:51:32;;;;;;;2.20;1.73;;;3.70;99.90;;;;;;4976171;28;20567;-72
2022/01/09 06:53:59;;;;;;;4.50;1.70;;;3.70;99.90;;;;;;4976060;28;20539;-71
2022/01/09 06:56:26;;;;;;;2.37;1.10;;;3.80;99.90;;;;;;4976424;28;20539;-71
2022/01/09 06:58:53;;;;;;;1.60;1.50;;;3.80;99.90;;;;;;4975832;28;20538;-72
2022/01/09 07:01:21;;;;;;;5.50;1.50;;;3.80;99.90;;;;;;4976029;28;20567;-71
2022/01/09 07:03:48;;;;;;;1.30;1.20;;;3.80;99.90;;;;;;4976150;28;20460;-71
2022/01/09 07:06:15;;;;;;;3.43;1.60;;;3.80;99.90;;;;;;4975806;28;20451;-72
2022/01/09 07:08:42;;;;;;;3.90;1.50;;;3.80;99.90;;;;;;4975854;28;20464;-71
2022/01/09 07:11:09;;;;;;;1.47;1.37;;;3.80;99.90;;;;;;4975863;28;20567;-71
2022/01/09 07:13:36;;;;;;;2.30;1.40;;;3.80;99.90;;;;;;4976109;28;20455;-71
2022/01/09 07:16:03;;;;;;;4.13;1.53;;;3.80;99.90;;;;;;4975388;28;20462;-71
2022/01/09 07:18:32;;;;;;;1.87;1.70;;;3.80;99.90;;;;;;4974980;28;20530;-70
2022/01/09 07:20:59;;;;;;;2.77;1.70;;;3.80;99.90;;;;;;4975392;28;20515;-71
2022/01/09 07:23:26;;;;;;;3.53;1.77;;;3.80;99.90;;;;;;4975516;28;20444;-71
2022/01/09 07:25:53;;;;;;;3.63;1.80;;;3.80;99.90;;;;;;4975890;28;20539;-70
2022/01/09 07:28:20;;;;;;;2.60;2.00;;;3.90;99.90;;;;;;4975478;28;20495;-71
2022/01/09 07:30:47;;;;;;;2.50;2.20;;;3.80;99.90;;;;;;4975181;28;20542;-71
2022/01/09 07:33:14;;;;;;;5.13;2.17;;;3.90;99.90;;;;;;4975268;28;20550;-72
2022/01/09 07:35:42;;;;;;;5.93;2.57;;;3.90;99.90;;;;;;4975607;28;20523;-70
2022/01/09 07:38:09;;;;;;;2.47;1.80;;;3.80;99.90;;;;;;4975363;28;21023;-71
2022/01/09 07:40:36;;;;;;;7.20;1.93;;;3.80;99.90;;;;;;4975263;28;20558;-71
2022/01/09 07:43:03;;;;;;;3.30;2.20;;;3.80;99.90;;;;;;4975386;28;20490;-71
2022/01/09 07:45:30;;;;;;;4.90;2.17;;;3.80;99.90;;;;;;4975311;28;20535;-70
2022/01/09 07:48:00;;;;;;;6.97;3.33;;;3.80;99.90;;;;;;4975069;28;20500;-71
2022/01/09 07:50:28;;;;;;;7.40;2.60;;;3.90;99.90;;;;;;4975323;28;20451;-70
2022/01/09 07:52:57;;;;;;;5.73;2.67;;;3.80;99.90;;;;;;4975421;28;20538;-70
2022/01/09 07:55:24;;;;;;;5.20;2.43;;;3.90;99.90;;;;;;4975117;28;21035;-70
2022/01/09 07:57:51;;;;;;;3.63;2.20;;;3.90;99.90;;;;;;4975251;28;20526;-71
2022/01/09 08:00:19;;;;;;;4.13;2.57;;;3.80;99.90;;;;;;4974540;28;20967;-71
2022/01/09 08:02:47;;;;;;;5.37;2.30;;;3.90;99.90;;;;;;4975047;28;20546;-71
2022/01/09 08:05:15;;;;;;;8.80;2.37;;;3.90;99.90;;;;;;4974909;28;20547;-71
2022/01/09 08:07:43;;;;;;;6.10;2.00;;;3.90;99.90;;;;;;4974775;28;21083;-71
2022/01/09 08:10:12;;;;;;;5.33;2.70;;;3.90;99.90;;;;;;4974541;28;20551;-72
2022/01/09 08:12:40;;;;;;;5.57;2.27;;;3.90;99.90;;;;;;4974804;28;20539;-72
2022/01/09 08:15:07;;;;;;;5.13;2.47;;;3.90;99.90;;;;;;4974584;28;20494;-71
2022/01/09 08:17:34;;;;;;;5.00;1.90;;;3.90;99.90;;;;;;4974912;28;20535;-71
2022/01/09 08:20:01;;;;;;;5.20;2.53;;;3.90;99.90;;;;;;4974384;28;21012;-72
2022/01/09 08:22:29;;;;;;;7.47;3.00;;;3.90;99.90;;;;;;4974726;28;20845;-71
2022/01/09 08:24:57;;;;;;;10.80;2.70;;;3.90;99.90;;;;;;4974610;28;20455;-71
2022/01/09 08:27:25;;;;;;;3.60;1.97;;;3.90;99.90;;;;;;4974464;28;20492;-71
2022/01/09 08:29:52;;;;;;;4.07;2.07;;;3.90;99.90;;;;;;4973749;28;20495;-71
2022/01/09 08:32:19;;;;;;;2.90;1.63;;;3.90;99.90;;;;;;4974343;28;21055;-70
2022/01/09 08:34:46;;;;;;;5.90;2.17;;;3.90;99.90;;;;;;4974260;28;20473;-73
2022/01/09 08:37:14;;;;;;;7.70;2.20;;;3.90;99.90;;;;;;4974495;28;20518;-71
2022/01/09 08:39:41;;;;;;;5.73;1.90;;;3.90;99.90;;;;;;4974042;28;20944;-71
2022/01/09 08:42:08;;;;;;;7.33;3.70;;;3.90;99.90;;;;;;4974013;28;20579;-72
2022/01/09 08:44:37;;;;;;;8.20;2.80;;;3.80;99.90;;;;;;4974341;28;20451;-71
2022/01/09 08:47:04;;;;;;;6.73;2.00;;;3.90;99.90;;;;;;4974245;28;20496;-71
2022/01/09 08:49:31;;;;;;;6.40;2.47;;;3.90;99.90;;;;;;4973440;28;20479;-71
2022/01/09 08:51:58;;;;;;;9.60;3.50;;;3.90;99.90;;;;;;4973963;28;20551;-72
2022/01/09 08:54:25;;;;;;;6.90;2.70;;;3.90;99.90;;;;;;4973937;28;20464;-71
2022/01/09 08:56:52;;;;;;;7.10;2.60;;;3.90;99.90;;;;;;4973919;28;20480;-71
2022/01/09 08:59:20;;;;;;;10.77;2.33;;;3.90;99.90;;;;;;4973934;28;20884;-71
2022/01/09 09:01:49;;;;;;;4.40;2.30;;;3.90;99.90;;;;;;4973831;28;20484;-72
2022/01/09 09:04:16;;;;;;;7.07;2.50;;;3.90;99.90;;;;;;4973785;28;20479;-72
2022/01/09 09:06:44;;;;;;;6.73;2.27;;;3.90;99.90;;;;;;4974308;28;20848;-72
2022/01/09 09:09:11;;;;;;;3.23;2.10;;;3.90;99.90;;;;;;4973396;28;20558;-72
2022/01/09 09:11:39;;;;;;;4.60;2.60;;;3.90;99.90;;;;;;4973793;28;21047;-72
2022/01/09 09:14:06;;;;;;;7.77;1.70;;;4.00;99.90;;;;;;4973627;28;20487;-72
2022/01/09 09:16:34;;;;;;;7.90;2.60;;;4.00;99.90;;;;;;4973977;28;20515;-71
2022/01/09 09:19:02;;;;;;;8.27;2.17;;;4.00;99.90;;;;;;4973587;28;20480;-72
2022/01/09 09:21:29;;;;;;;10.43;2.57;;;4.00;99.90;;;;;;4974068;28;20507;-72
2022/01/09 09:23:56;;;;;;;10.20;2.53;;;4.10;99.90;;;;;;4973642;28;20538;-73
2022/01/09 09:26:23;;;;;;;6.40;2.07;;;4.10;99.90;;;;;;4973767;28;20483;-72
2022/01/09 09:28:50;;;;;;;10.93;2.60;;;4.10;99.90;;;;;;4973321;28;20502;-72
2022/01/09 09:31:18;;;;;;;8.60;2.40;;;4.10;99.90;;;;;;4973325;28;20503;-71
2022/01/09 09:33:45;;;;;;;6.57;2.70;;;4.10;99.90;;;;;;4973460;28;20482;-71
2022/01/09 09:36:13;;;;;;;6.23;2.50;;;4.10;99.90;;;;;;4973356;28;21035;-72
2022/01/09 09:38:40;;;;;;;9.30;2.40;;;4.20;99.90;;;;;;4973231;28;20514;-72
2022/01/09 09:41:07;;;;;;;9.17;2.37;;;4.20;99.90;;;;;;4972414;28;21242;-71
2022/01/09 09:43:35;;;;;;;7.57;2.37;;;4.20;99.90;;;;;;4973300;28;20483;-72
2022/01/09 09:46:02;;;;;;;7.60;2.90;;;4.20;99.90;;;;;;4973370;28;20896;-72
2022/01/09 09:48:29;;;;;;;4.20;1.90;;;4.20;99.90;;;;;;4973200;28;20502;-73
2022/01/09 09:50:56;;;;;;;11.40;2.00;;;4.20;99.90;;;;;;4972171;28;20937;-73
2022/01/09 09:53:25;;;;;;;5.00;2.17;;;4.30;99.90;;;;;;4972334;28;20463;-73
2022/01/09 09:55:53;;;;;;;15.60;4.97;;;4.30;99.90;;;;;;4972131;28;21042;-72
2022/01/09 09:58:22;;;;;;;2.97;1.70;;;4.30;99.90;;;;;;4971890;28;20933;-73
2022/01/09 10:00:53;;;;;;;10.40;1.93;;;4.30;99.90;;;;;;4971579;28;20480;-73
2022/01/09 10:03:28;;;;;;;8.53;2.77;;;4.30;99.90;;;;;;4971942;28;20464;-73
2022/01/09 10:05:54;;;;;;;7.00;3.10;;;4.40;99.90;;;;;;4972253;28;20522;-73
2022/01/09 10:08:21;;;;;;;3.90;2.10;;;4.40;99.90;;;;;;4971877;28;20582;-73
2022/01/09 10:10:49;;;;;;;7.53;2.33;;;4.50;99.90;;;;;;4971772;28;20583;-73
2022/01/09 10:13:19;;;;;;;6.10;1.93;;;4.50;99.90;;;;;;4971843;28;20551;-73
2022/01/09 10:15:48;;;;;;;7.77;2.40;;;4.60;99.90;;;;;;4972003;28;20452;-73
2022/01/09 10:18:40;;;;;;;12.93;2.47;;;4.60;99.90;;;;;;4971871;28;20448;-73
2022/01/09 10:21:08;;;;;;;6.97;1.90;;;4.70;99.90;;;;;;4971142;28;20453;-73
2022/01/09 10:23:35;;;;;;;5.30;2.10;;;5.10;99.90;;;;;;4971743;28;20243;-72
2022/01/09 10:26:11;;;;;;;5.13;2.00;;;5.20;99.90;;;;;;4972531;28;20483;-73
2022/01/09 10:28:39;;;;;;;7.30;2.00;;;5.20;99.90;;;;;;4972483;28;20511;-73
2022/01/09 10:31:16;;;;;;;6.00;1.93;;;5.30;99.90;;;;;;4972724;28;20558;-73
2022/01/09 10:33:57;;;;;;;7.43;2.50;;;5.30;99.90;;;;;;4972808;28;20432;-73
2022/01/09 10:36:36;;;;;;;6.63;2.23;;;5.30;99.90;;;;;;4972754;28;20474;-72
2022/01/09 10:39:07;;;;;;;7.77;3.00;;;5.20;99.90;;;;;;4965701;28;21252;-73
2022/01/09 10:41:55;;;;;;;6.60;2.60;;;5.20;99.90;;;;;;4955714;28;20469;-73
2022/01/09 10:44:27;;;;;;;10.30;2.73;;;5.20;99.90;;;;;;4953396;29;20544;-72
2022/01/09 10:47:00;;;;;;;8.00;2.00;;;5.20;99.90;;;;;;4953370;29;21015;-72
2022/01/09 10:49:38;;;;;;;7.83;2.43;;;5.10;99.90;;;;;;4952936;29;20555;-73
2022/01/09 10:52:16;;;;;;;4.47;2.70;;;5.20;99.90;;;;;;4955633;28;20555;-72
2022/01/09 10:54:46;;;;;;;3.13;2.00;;;5.10;99.90;;;;;;4957092;28;20452;-72
2022/01/09 10:57:15;;;;;;;8.90;2.30;;;5.10;99.90;;;;;;4956712;29;20891;-72
2022/01/09 10:59:42;;;;;;;8.80;3.77;;;5.10;99.90;;;;;;4965490;28;20483;-73
2022/01/09 11:02:12;;;;;;;6.03;2.03;;;5.10;99.90;;;;;;4975971;28;20511;-73
2022/01/09 11:04:42;;;;;;;7.30;2.53;;;5.10;99.90;;;;;;4962330;28;20485;-73
2022/01/09 11:07:10;;;;;;;8.27;2.80;;;5.10;99.90;;;;;;4957052;29;20922;-73
2022/01/09 11:09:38;;;;;;;5.90;2.03;;;5.00;99.90;;;;;;4960254;28;20562;-73
2022/01/09 11:12:07;;;;;;;4.47;2.10;;;5.00;99.90;;;;;;4976116;28;20559;-73
2022/01/09 11:14:39;;;;;;;7.07;3.73;;;5.00;99.90;;;;;;5038349;23;20524;-74
2022/01/09 11:17:07;;;;;;;7.43;4.60;;;4.90;99.90;;;;;;5014919;28;20464;-74
2022/01/09 11:19:34;;;;;;;4.63;3.53;;;5.00;99.90;;;;;;5014669;28;20485;-74
2022/01/09 11:22:05;;;;;;;5.50;2.50;;;5.00;99.90;;;;;;5014932;28;20883;-74
2022/01/09 11:25:03;;;;;;;18.67;10.63;;;5.00;99.90;;;;;;5014631;28;20838;-73
2022/01/09 11:27:59;;;;;;;4.10;1.63;;;5.00;99.90;;;;;;5014436;28;20546;-74
2022/01/09 11:30:38;;;;;;;2.80;1.67;;;5.00;99.90;;;;;;5003935;28;20834;-74
2022/01/09 11:33:26;;;;;;;7.27;1.90;;;4.90;99.90;;;;;;5014376;28;20450;-73
2022/01/09 11:36:04;;;;;;;7.97;6.47;;;4.90;99.90;;;;;;5014866;28;20457;-74
2022/01/09 11:38:43;;;;;;;5.80;3.20;;;4.90;99.90;;;;;;5014457;28;20449;-77
2022/01/09 11:41:18;;;;;;;10.43;3.90;;;4.90;99.90;;;;;;5014196;28;20454;-74
2022/01/09 11:43:53;;;;;;;3.88;1.80;;;5.00;99.90;;;;;;5014144;28;20517;-75
2022/01/09 11:46:20;;;;;;;6.73;2.10;;;5.10;99.90;;;;;;5014245;28;20211;-67
2022/01/09 11:49:06;;;;;;;4.30;2.00;;;5.10;99.90;;;;;;5014055;28;20494;-67
2022/01/09 11:51:34;;;;;;;9.23;4.13;;;5.00;99.90;;;;;;5014170;28;20536;-66
2022/01/09 11:54:09;;;;;;;3.83;2.17;;;5.00;99.90;;;;;;5013861;28;20473;-66
2022/01/09 11:56:55;;;;;;;5.87;2.10;;;5.00;99.90;;;;;;5014328;28;20473;-65
2022/01/09 11:59:28;;;;;;;3.30;1.97;;;5.00;99.90;;;;;;5013896;28;20489;-75
2022/01/09 12:01:57;;;;;;;3.67;2.47;;;5.00;99.90;;;;;;5014407;28;20478;-75
2022/01/09 12:04:52;;;;;;;6.33;2.70;;;4.90;99.90;;;;;;5012996;28;20812;-74
2022/01/09 12:08:04;;;;;;;7.43;2.80;;;4.90;99.90;;;;;;5013976;28;20537;-75
2022/01/09 12:10:35;;;;;;;10.93;4.00;;;4.90;99.90;;;;;;5013565;28;20457;-74
2022/01/09 12:13:04;;;;;;;7.30;3.80;;;4.90;99.90;;;;;;5013815;28;21017;-73
2022/01/09 12:15:39;;;;;;;8.60;3.40;;;4.90;99.90;;;;;;5013802;28;20497;-76
2022/01/09 12:18:07;;;;;;;5.33;2.97;;;4.90;99.90;;;;;;5013921;28;20536;-76
2022/01/09 12:20:40;;;;;;;12.53;4.97;;;4.80;99.90;;;;;;5013400;28;21037;-76
2022/01/09 12:23:08;;;;;;;6.53;2.90;;;4.80;99.90;;;;;;5012327;28;20485;-76
2022/01/09 12:25:51;;;;;;;6.80;2.50;;;4.80;99.90;;;;;;5013687;28;20446;-76
2022/01/09 12:28:20;;;;;;;1.90;1.80;;;4.60;99.90;;;;;;5013541;28;20576;-76
2022/01/09 12:30:55;;;;;;;9.83;4.77;;;4.40;99.90;;;;;;5013273;28;20446;-76
2022/01/09 12:33:45;;;;;;;9.53;2.90;;;4.30;99.90;;;;;;5013237;28;20468;-76
2022/01/09 12:36:14;;;;;;;5.93;2.10;;;4.30;99.90;;;;;;5010356;28;20967;-76
2022/01/09 12:38:42;;;;;;;8.77;2.33;;;4.30;99.90;;;;;;4999545;28;20447;-75
2022/01/09 12:41:12;;;;;;;5.87;2.70;;;4.30;99.90;;;;;;4992657;28;20986;-76
2022/01/09 12:43:40;;;;;;;7.83;2.93;;;4.30;99.90;;;;;;5002915;28;20850;-76
2022/01/09 12:46:11;;;;;;;7.80;3.70;;;4.30;99.90;;;;;;5003949;28;20938;-76
2022/01/09 12:48:40;;;;;;;4.00;3.40;;;4.40;99.90;;;;;;5000232;28;20513;-74
2022/01/09 12:51:10;;;;;;;8.93;2.70;;;4.40;99.90;;;;;;5002826;28;20545;-73
2022/01/09 12:53:44;;;;;;;6.50;2.43;;;4.40;99.90;;;;;;5001238;28;20491;-74
2022/01/09 12:56:14;;;;;;;15.80;10.63;;;4.40;99.90;;;;;;5001031;28;20612;-73
2022/01/09 12:58:43;;;;;;;7.30;3.50;;;4.40;99.90;;;;;;5002212;28;20534;-74
2022/01/09 13:01:19;;;;;;;3.60;2.43;;;4.30;99.90;;;;;;5000636;28;20440;-73
2022/01/09 13:03:48;;;;;;;16.57;3.80;;;4.30;99.90;;;;;;5000353;28;20477;-73
2022/01/09 13:06:17;;;;;;;4.93;3.20;;;4.30;99.90;;;;;;5001003;28;20479;-73
2022/01/09 13:08:46;;;;;;;9.20;2.63;;;4.40;99.90;;;;;;5000772;28;20911;-74
2022/01/09 13:11:16;;;;;;;5.70;2.30;;;4.70;99.90;;;;;;5000346;28;20451;-73
2022/01/09 13:13:47;;;;;;;6.60;1.90;;;4.80;99.90;;;;;;5000936;28;20501;-74
2022/01/09 13:16:16;;;;;;;4.77;2.50;;;4.90;99.90;;;;;;5002452;28;20529;-73
2022/01/09 13:18:45;;;;;;;5.83;2.67;;;4.80;99.90;;;;;;5000040;28;20474;-74
2022/01/09 13:21:17;;;;;;;6.10;2.57;;;4.80;99.90;;;;;;4996990;28;20556;-74
2022/01/09 13:24:01;;;;;;;5.63;2.17;;;4.70;99.90;;;;;;5005044;28;20586;-73
2022/01/09 13:26:31;;;;;;;10.10;3.17;;;4.70;99.90;;;;;;5011426;28;20454;-73
2022/01/09 13:28:59;;;;;;;8.03;2.57;;;4.70;99.90;;;;;;5012299;28;20580;-73
2022/01/09 13:31:32;;;;;;;6.93;3.00;;;4.70;99.90;;;;;;5011536;28;20482;-73
2022/01/09 13:34:04;;;;;;;6.67;3.10;;;4.70;99.90;;;;;;5007627;28;21037;-73
2022/01/09 13:36:40;;;;;;;5.67;2.60;;;4.70;99.90;;;;;;5005315;28;20455;-73
2022/01/09 13:39:09;;;;;;;6.53;2.67;;;4.60;99.90;;;;;;4998249;28;20474;-73
2022/01/09 13:41:41;;;;;;;7.70;2.40;;;4.50;99.90;;;;;;4999387;28;20527;-73
2022/01/09 13:44:08;;;;;;;3.70;2.17;;;4.30;99.90;;;;;;4999357;28;20470;-73
2022/01/09 13:46:36;;;;;;;3.40;1.70;;;4.00;99.90;;;;;;5001860;28;20459;-73
2022/01/09 13:49:12;;;;;;;2.07;1.83;;;4.10;99.90;;;;;;5000846;28;20561;-75
2022/01/09 13:51:49;;;;;;;6.20;1.90;;;4.10;99.90;;;;;;4999477;28;20897;-75
2022/01/09 13:54:20;;;;;;;2.47;1.93;;;4.20;99.90;;;;;;4999214;28;20467;-75
2022/01/09 13:57:05;;;;;;;5.00;2.00;;;4.20;99.90;;;;;;5010998;28;20478;-74
2022/01/09 13:59:37;;;;;;;4.17;2.20;;;4.20;99.90;;;;;;5011071;28;20439;-75
2022/01/09 14:02:04;;;;;;;6.03;2.10;;;4.30;99.90;;;;;;5011223;28;20484;-75
2022/01/09 14:04:31;;;;;;;7.07;2.30;;;4.40;99.90;;;;;;5010954;28;20513;-75
2022/01/09 14:06:59;;;;;;;6.30;2.10;;;4.50;99.90;;;;;;5010850;28;20498;-75
2022/01/09 14:09:31;;;;;;;6.47;2.50;;;4.50;99.90;;;;;;5010333;28;20608;-75
2022/01/09 14:12:07;;;;;;;6.63;1.80;;;4.50;99.90;;;;;;5011669;28;20490;-73
2022/01/09 14:14:36;;;;;;;2.03;1.80;;;4.30;99.90;;;;;;5012019;28;20481;-74
2022/01/09 14:17:25;;;;;;;2.80;1.53;;;4.20;99.90;;;;;;5012118;28;20537;-66
2022/01/09 14:19:52;;;;;;;5.00;1.90;;;4.10;99.90;;;;;;5011635;28;20533;-74
2022/01/09 14:22:20;;;;;;;3.53;1.73;;;4.00;99.90;;;;;;5011954;28;20489;-74
2022/01/09 14:24:57;;;;;;;3.93;2.53;;;4.00;99.90;;;;;;5011909;28;20478;-74
2022/01/09 14:27:31;;;;;;;6.35;3.03;;;3.90;99.90;;;;;;5014586;28;20519;-74
2022/01/09 14:29:59;;;;;;;7.03;2.50;;;4.00;99.90;;;;;;5015479;28;20241;-74
2022/01/09 14:32:26;;;;;;;3.47;2.40;;;4.10;99.90;;;;;;5015755;28;20537;-74
2022/01/09 14:34:55;;;;;;;4.57;2.20;;;4.20;99.90;;;;;;5015648;28;20533;-74
2022/01/09 14:37:22;;;;;;;12.03;2.97;;;4.20;99.90;;;;;;5015741;28;20438;-74
2022/01/09 14:39:50;;;;;;;6.30;3.07;;;4.30;99.90;;;;;;5015447;28;20533;-75
2022/01/09 14:42:17;;;;;;;7.43;3.27;;;4.40;99.90;;;;;;5015622;28;20485;-74
2022/01/09 14:44:45;;;;;;;5.37;3.00;;;4.50;99.90;;;;;;5015457;28;20520;-74
2022/01/09 14:47:12;;;;;;;7.40;3.33;;;4.60;99.90;;;;;;5015623;28;20537;-74
2022/01/09 14:49:39;;;;;;;8.80;6.10;;;4.70;99.90;;;;;;5015376;28;20529;-75
2022/01/09 14:52:06;;;;;;;7.43;3.00;;;4.70;99.90;;;;;;5015660;28;20885;-74
2022/01/09 14:54:35;;;;;;;7.60;4.47;;;4.70;99.90;;;;;;5015512;28;20552;-74
2022/01/09 14:57:03;;;;;;;8.50;4.00;;;4.70;99.90;;;;;;5015715;28;20546;-74
2022/01/09 14:59:29;;;;;;;8.60;4.80;;;4.80;99.90;;;;;;5015299;28;20572;-75
2022/01/09 15:02:01;;;;;;;9.07;3.70;;;4.80;99.90;;;;;;5015694;28;20486;-74
2022/01/09 15:04:27;;;;;;;6.60;3.23;;;4.90;99.90;;;;;;5015742;28;20474;-75
2022/01/09 15:06:55;;;;;;;4.20;2.50;;;4.90;99.90;;;;;;5015410;28;20537;-75
2022/01/09 15:09:25;;;;;;;3.80;2.90;;;4.90;99.90;;;;;;5014779;28;20917;-75
2022/01/09 15:11:53;;;;;;;4.00;2.50;;;5.00;99.90;;;;;;5014860;28;20929;-75
2022/01/09 15:14:20;;;;;;;3.77;2.53;;;5.00;99.90;;;;;;5014520;28;20481;-75
2022/01/09 15:16:47;;;;;;;10.87;3.73;;;5.00;99.90;;;;;;5014839;28;20453;-76
2022/01/09 15:19:16;;;;;;;9.70;5.07;;;4.90;99.90;;;;;;5014241;28;20537;-75
2022/01/09 15:21:44;;;;;;;9.37;6.17;;;4.80;99.90;;;;;;5014754;28;20455;-75
2022/01/09 15:24:11;;;;;;;7.20;5.77;;;4.70;99.90;;;;;;5014584;28;20882;-75
2022/01/09 15:26:38;;;;;;;9.80;5.13;;;4.70;99.90;;;;;;5014805;28;20497;-75
2022/01/09 15:29:05;;;;;;;11.67;5.70;;;4.70;99.90;;;;;;5014464;28;20541;-75
2022/01/09 15:31:32;;;;;;;8.00;5.40;;;4.70;99.90;;;;;;5014707;28;20450;-75
2022/01/09 15:33:59;;;;;;;9.13;5.50;;;4.70;99.90;;;;;;5014585;28;20553;-75
2022/01/09 15:36:27;;;;;;;7.10;4.60;;;4.80;99.90;;;;;;5014483;28;20544;-75
2022/01/09 15:38:54;;;;;;;10.40;3.73;;;4.70;99.90;;;;;;5012939;28;20497;-75
2022/01/09 15:41:21;;;;;;;5.70;3.20;;;4.60;99.90;;;;;;5011548;28;20866;-75
2022/01/09 15:43:48;;;;;;;7.40;2.97;;;4.60;99.90;;;;;;4994998;28;20475;-75
2022/01/09 15:46:15;;;;;;;4.73;2.27;;;4.50;99.90;;;;;;4995159;28;20534;-75
2022/01/09 15:48:44;;;;;;;3.23;2.50;;;4.50;99.90;;;;;;4994964;28;20457;-76
2022/01/09 15:51:11;;;;;;;6.80;2.27;;;4.40;99.90;;;;;;4994611;28;20518;-75
2022/01/09 15:53:40;;;;;;;5.35;2.45;;;4.40;99.90;;;;;;4995519;28;20523;-75
2022/01/09 15:56:10;;;;;;;6.10;2.60;;;4.30;99.90;;;;;;5011792;28;20299;-75
2022/01/09 15:58:36;;;;;;;6.70;3.13;;;4.30;99.90;;;;;;5014314;28;21017;-75
2022/01/09 16:01:03;;;;;;;4.70;3.03;;;4.20;99.90;;;;;;5014506;28;20490;-76
2022/01/09 16:03:30;;;;;;;10.60;4.10;;;4.30;99.90;;;;;;5014026;28;20545;-75
2022/01/09 16:05:57;;;;;;;3.33;2.20;;;4.20;99.90;;;;;;5013346;28;20470;-75
2022/01/09 16:08:25;;;;;;;29.10;11.70;;;4.10;99.90;;;;;;5014009;28;20548;-75
2022/01/09 16:10:54;;;;;;;8.10;3.87;;;4.10;99.90;;;;;;5014228;28;20489;-75
2022/01/09 16:13:20;;;;;;;20.47;9.23;;;4.10;99.90;;;;;;5014142;28;20458;-75
2022/01/09 16:15:47;;;;;;;6.07;4.47;;;4.10;99.90;;;;;;5013761;28;21045;-77
2022/01/09 16:18:14;;;;;;;10.47;7.40;;;4.10;99.90;;;;;;5013880;28;20454;-70
2022/01/09 16:20:41;;;;;;;36.00;12.87;;;4.10;99.90;;;;;;5013429;28;20454;-75
2022/01/09 16:23:11;;;;;;;10.93;4.17;;;4.00;99.90;;;;;;5013495;28;21028;-75
2022/01/09 16:25:38;;;;;;;136.57;39.97;;;4.00;99.90;;;;;;5013686;28;20458;-75
2022/01/09 16:28:06;;;;;;;62.13;20.83;;;4.00;99.90;;;;;;5013713;28;20531;-64
2022/01/09 16:30:36;;;;;;;91.77;29.30;;;4.10;99.90;;;;;;5013271;28;20585;-64
2022/01/09 16:33:04;;;;;;;11.97;6.17;;;4.10;99.90;;;;;;5013262;28;20529;-65
2022/01/09 16:35:31;;;;;;;22.47;10.47;;;4.10;99.90;;;;;;5013827;28;20466;-76
2022/01/09 16:37:59;;;;;;;6.87;3.30;;;4.20;99.90;;;;;;5013534;28;20489;-76
2022/01/09 16:40:27;;;;;;;5.00;3.87;;;4.20;99.90;;;;;;5014013;28;20823;-75
2022/01/09 16:42:54;;;;;;;4.83;3.07;;;4.20;99.90;;;;;;5014293;28;20450;-76
2022/01/09 16:45:23;;;;;;;5.20;3.27;;;4.20;99.90;;;;;;5013610;28;20481;-75
2022/01/09 16:47:50;;;;;;;5.63;3.80;;;4.20;99.90;;;;;;5013242;28;20457;-75
2022/01/09 16:50:17;;;;;;;6.50;5.63;;;4.20;99.90;;;;;;5012914;28;20864;-75
2022/01/09 16:52:44;;;;;;;12.43;4.27;;;4.20;99.90;;;;;;5013263;28;20973;-76
2022/01/09 16:55:11;;;;;;;7.53;4.70;;;4.30;99.90;;;;;;5013321;28;20552;-76
2022/01/09 16:57:38;;;;;;;9.83;4.83;;;4.30;99.90;;;;;;5013399;28;20545;-76
2022/01/09 17:00:07;;;;;;;9.70;5.00;;;4.40;99.90;;;;;;5012729;28;20461;-76
2022/01/09 17:02:37;;;;;;;9.43;4.37;;;4.40;99.90;;;;;;5013390;28;20497;-76
2022/01/09 17:05:04;;;;;;;8.53;4.40;;;4.40;99.90;;;;;;5012843;28;21044;-76
2022/01/09 17:07:32;;;;;;;17.57;5.23;;;4.50;99.90;;;;;;5013052;28;20512;-76
2022/01/09 17:10:02;;;;;;;14.97;6.63;;;4.50;99.90;;;;;;5012630;28;20766;-76
2022/01/09 17:12:29;;;;;;;12.43;6.47;;;4.50;99.90;;;;;;5012838;28;20966;-76
2022/01/09 17:14:56;;;;;;;8.47;4.90;;;4.50;99.90;;;;;;5022555;23;20575;-75
2022/01/09 17:17:23;;;;;;;6.63;4.33;;;4.50;99.90;;;;;;4992994;28;20450;-75
2022/01/09 17:19:54;;;;;;;6.47;4.47;;;4.50;99.90;;;;;;4992959;28;20497;-75
2022/01/09 17:22:21;;;;;;;7.33;3.80;;;4.50;99.90;;;;;;4993196;28;20443;-75
2022/01/09 17:24:48;;;;;;;6.17;4.47;;;4.50;99.90;;;;;;4992947;28;20475;-77
2022/01/09 17:27:15;;;;;;;7.97;4.43;;;4.40;99.90;;;;;;4993408;28;20541;-75
2022/01/09 17:29:42;;;;;;;6.93;4.40;;;4.50;99.90;;;;;;4993940;28;20538;-75
2022/01/09 17:32:09;;;;;;;5.10;3.17;;;4.50;99.90;;;;;;4993295;28;20899;-75
2022/01/09 17:34:36;;;;;;;7.53;3.53;;;4.50;99.90;;;;;;4993270;28;20506;-75
2022/01/09 17:37:04;;;;;;;7.63;4.43;;;4.50;99.90;;;;;;4993725;28;20490;-72
2022/01/09 17:39:31;;;;;;;7.97;4.23;;;4.40;99.90;;;;;;4992810;28;20490;-73
2022/01/09 17:41:58;;;;;;;13.70;4.20;;;4.40;99.90;;;;;;4993253;28;20530;-72
2022/01/09 17:44:25;;;;;;;8.87;4.20;;;4.30;99.90;;;;;;4992822;28;20498;-73
2022/01/09 17:46:52;;;;;;;14.00;4.27;;;4.30;99.90;;;;;;4992555;28;20533;-74
2022/01/09 17:49:24;;;;;;;12.60;5.40;;;4.30;99.90;;;;;;4993008;28;20526;-75
2022/01/09 17:51:51;;;;;;;5.60;4.40;;;4.30;99.90;;;;;;4993711;28;21037;-74
2022/01/09 17:54:20;;;;;;;6.90;4.60;;;4.30;99.90;;;;;;4992385;28;21011;-75
2022/01/09 17:56:49;;;;;;;6.63;5.40;;;4.30;99.90;;;;;;4993470;28;20501;-73
2022/01/09 17:59:16;;;;;;;13.30;7.10;;;4.30;99.90;;;;;;4992501;28;20542;-72
2022/01/09 18:01:43;;;;;;;8.93;4.30;;;4.30;99.90;;;;;;4992582;28;20440;-74
2022/01/09 18:04:10;;;;;;;6.50;4.83;;;4.50;99.90;;;;;;4992913;28;20240;-77
2022/01/09 18:06:37;;;;;;;11.37;4.17;;;4.50;99.90;;;;;;4992903;28;20546;-76